createdAt,value
2018-02-12T00:01:51.726Z,7.77
2018-02-12T00:04:19.315Z,7.40
2018-02-12T00:06:46.865Z,8.57
2018-02-12T00:09:14.434Z,8.30
2018-02-12T00:11:41.969Z,8.13
2018-02-12T00:14:09.566Z,7.63
2018-02-12T00:16:37.861Z,7.00
2018-02-12T00:19:06.757Z,7.80
2018-02-12T00:21:34.343Z,6.70
2018-02-12T00:24:01.875Z,7.50
2018-02-12T00:26:29.505Z,8.20
2018-02-12T00:28:57.069Z,7.03
2018-02-12T00:31:24.614Z,7.20
2018-02-12T00:33:52.230Z,6.73
2018-02-12T00:36:19.762Z,6.57
2018-02-12T00:38:47.336Z,6.47
2018-02-12T00:41:15.648Z,6.60
2018-02-12T00:43:43.236Z,6.50
2018-02-12T00:46:10.845Z,5.63
2018-02-12T00:48:39.239Z,6.87
2018-02-12T00:51:07.782Z,6.17
2018-02-12T00:53:36.687Z,6.33
2018-02-12T00:56:04.414Z,7.00
2018-02-12T00:58:32.071Z,6.37
2018-02-12T01:00:59.644Z,6.00
2018-02-12T01:03:27.935Z,6.27
2018-02-12T01:05:55.507Z,5.90
2018-02-12T01:08:23.069Z,6.43
2018-02-12T01:10:50.634Z,6.47
2018-02-12T01:13:18.177Z,7.37
2018-02-12T01:15:45.754Z,6.50
2018-02-12T01:18:13.284Z,6.43
2018-02-12T01:20:40.869Z,6.53
2018-02-12T01:23:08.432Z,6.40
2018-02-12T01:25:35.992Z,6.63
2018-02-12T01:28:03.569Z,6.40
2018-02-12T01:30:31.166Z,6.03
2018-02-12T01:32:58.709Z,6.20
2018-02-12T01:35:26.251Z,6.47
2018-02-12T01:37:54.604Z,5.80
2018-02-12T01:40:22.188Z,7.73
2018-02-12T01:42:50.521Z,6.23
2018-02-12T01:45:18.822Z,6.17
2018-02-12T01:47:46.432Z,5.50
2018-02-12T01:50:19.585Z,6.33
2018-02-12T01:52:47.113Z,6.13
2018-02-12T01:55:14.701Z,6.63
2018-02-12T01:57:42.240Z,6.20
2018-02-12T02:00:10.570Z,7.00
2018-02-12T02:02:39.019Z,6.70
2018-02-12T02:05:08.071Z,6.70
2018-02-12T02:07:36.391Z,7.33
2018-02-12T02:10:04.735Z,7.37
2018-02-12T02:12:32.426Z,7.40
2018-02-12T02:15:00.759Z,6.47
2018-02-12T02:17:28.303Z,7.60
2018-02-12T02:19:55.890Z,7.50
2018-02-12T02:22:23.445Z,7.53
2018-02-12T02:24:51.062Z,7.20
2018-02-12T02:27:18.631Z,8.20
2018-02-12T02:29:46.169Z,7.70
2018-02-12T02:32:13.736Z,7.27
2018-02-12T02:34:42.036Z,7.33
2018-02-12T02:37:09.610Z,6.60
2018-02-12T02:39:37.917Z,7.90
2018-02-12T02:42:05.529Z,7.62
2018-02-12T02:44:33.853Z,7.23
2018-02-12T02:47:02.327Z,6.73
2018-02-12T02:49:29.954Z,7.70
2018-02-12T02:51:57.484Z,7.20
2018-02-12T02:54:25.352Z,6.90
2018-02-12T02:56:52.890Z,6.23
2018-02-12T02:59:20.472Z,5.30
2018-02-12T03:01:48.012Z,5.57
2018-02-12T03:04:15.569Z,6.33
2018-02-12T03:06:43.136Z,6.10
2018-02-12T03:09:10.669Z,5.57
2018-02-12T03:11:38.998Z,5.07
2018-02-12T03:14:06.750Z,5.33
2018-02-12T03:16:34.293Z,4.97
2018-02-12T03:19:01.863Z,5.03
2018-02-12T03:21:29.418Z,5.23
2018-02-12T03:23:56.988Z,5.10
2018-02-12T03:26:24.556Z,4.67
2018-02-12T03:28:52.895Z,5.10
2018-02-12T03:31:20.476Z,4.73
2018-02-12T03:33:48.823Z,3.70
2018-02-12T03:36:17.200Z,4.80
2018-02-12T03:38:44.785Z,5.13
2018-02-12T03:41:12.328Z,4.50
2018-02-12T03:43:39.900Z,4.57
2018-02-12T03:46:07.460Z,4.33
2018-02-12T03:48:35.787Z,4.50
2018-02-12T03:51:03.319Z,4.03
2018-02-12T03:53:30.981Z,4.33
2018-02-12T03:55:58.511Z,4.20
2018-02-12T03:58:26.851Z,4.20
2018-02-12T04:00:54.375Z,4.40
2018-02-12T04:03:22.683Z,3.50
2018-02-12T04:05:50.253Z,3.93
2018-02-12T04:08:17.845Z,4.23
2018-02-12T04:10:45.416Z,4.40
2018-02-12T04:13:12.945Z,3.37
2018-02-12T04:15:40.532Z,3.90
2018-02-12T04:18:08.069Z,4.40
2018-02-12T04:20:36.246Z,4.30
2018-02-12T04:23:03.833Z,3.00
2018-02-12T04:25:31.441Z,3.30
2018-02-12T04:27:58.981Z,3.80
2018-02-12T04:30:27.285Z,4.10
2018-02-12T04:32:54.849Z,4.10
2018-02-12T04:35:22.379Z,4.00
2018-02-12T04:37:49.961Z,3.70
2018-02-12T04:40:18.317Z,3.60
2018-02-12T04:42:45.895Z,3.27
2018-02-12T04:45:13.449Z,3.37
2018-02-12T04:47:41.024Z,3.50
2018-02-12T04:50:08.611Z,3.20
2018-02-12T04:52:37.391Z,5.67
2018-02-12T04:55:04.980Z,3.60
2018-02-12T04:57:32.525Z,2.80
2018-02-12T05:00:00.112Z,3.00
2018-02-12T05:02:27.650Z,2.60
2018-02-12T05:04:55.227Z,2.63
2018-02-12T05:07:22.782Z,2.80
2018-02-12T05:09:50.369Z,2.97
2018-02-12T05:12:17.939Z,3.47
2018-02-12T05:14:45.555Z,2.80
2018-02-12T05:17:13.095Z,2.50
2018-02-12T05:19:40.651Z,2.93
2018-02-12T05:22:08.220Z,2.80
2018-02-12T05:24:36.286Z,3.23
2018-02-12T05:27:04.637Z,3.07
2018-02-12T05:29:32.163Z,4.03
2018-02-12T05:31:59.760Z,3.30
2018-02-12T05:34:27.302Z,4.70
2018-02-12T05:36:55.600Z,3.53
2018-02-12T05:39:23.166Z,3.17
2018-02-12T05:41:50.692Z,3.50
2018-02-12T05:44:18.256Z,3.80
2018-02-12T05:46:45.793Z,3.00
2018-02-12T05:49:14.118Z,4.40
2018-02-12T05:51:42.424Z,5.20
2018-02-12T05:54:10.762Z,4.30
2018-02-12T05:56:39.096Z,5.20
2018-02-12T05:59:07.401Z,5.20
2018-02-12T06:01:35.006Z,4.35
2018-02-12T06:04:02.553Z,6.23
2018-02-12T06:06:30.114Z,3.87
2018-02-12T06:08:58.609Z,3.50
2018-02-12T06:11:26.140Z,3.87
2018-02-12T06:13:53.688Z,3.70
2018-02-12T06:16:22.056Z,4.90
2018-02-12T06:18:49.607Z,5.07
2018-02-12T06:21:17.927Z,5.20
2018-02-12T06:23:45.546Z,6.28
2018-02-12T06:26:13.075Z,6.03
2018-02-12T06:28:41.482Z,7.12
2018-02-12T06:31:09.030Z,6.87
2018-02-12T06:33:37.009Z,7.60
2018-02-12T06:36:04.555Z,7.70
2018-02-12T06:38:32.239Z,8.30
2018-02-12T06:40:59.815Z,8.87
2018-02-12T06:43:27.673Z,8.82
2018-02-12T06:45:55.216Z,9.13
2018-02-12T06:48:22.810Z,9.02
2018-02-12T06:50:50.505Z,9.63
2018-02-12T06:53:18.076Z,8.63
2018-02-12T06:55:46.397Z,8.20
2018-02-12T06:58:13.985Z,8.15
2018-02-12T07:00:41.543Z,7.13
2018-02-12T07:03:09.897Z,8.20
2018-02-12T07:05:37.548Z,7.82
2018-02-12T07:08:05.781Z,7.68
2018-02-12T07:10:33.344Z,9.00
2018-02-12T07:13:00.933Z,7.53
2018-02-12T07:15:28.524Z,9.38
2018-02-12T07:17:56.108Z,8.65
2018-02-12T07:20:24.741Z,8.70
2018-02-12T07:22:52.350Z,9.35
2018-02-12T07:25:19.874Z,9.90
2018-02-12T07:27:47.542Z,8.80
2018-02-12T07:30:15.141Z,10.30
2018-02-12T07:32:42.701Z,9.63
2018-02-12T07:35:10.298Z,10.05
2018-02-12T07:37:37.999Z,10.35
2018-02-12T07:40:05.595Z,11.10
2018-02-12T07:42:33.246Z,10.80
2018-02-12T07:45:02.608Z,11.07
2018-02-12T07:47:30.285Z,10.60
2018-02-12T07:49:57.917Z,10.35
2018-02-12T07:52:25.478Z,9.53
2018-02-12T07:54:53.076Z,9.00
2018-02-12T07:57:20.639Z,8.03
2018-02-12T07:59:48.201Z,9.55
2018-02-12T08:02:15.872Z,8.93
2018-02-12T08:04:43.471Z,7.67
2018-02-12T08:07:11.160Z,7.43
2018-02-12T08:09:38.716Z,6.60
2018-02-12T08:12:06.315Z,6.53
2018-02-12T08:14:34.619Z,7.30
2018-02-12T08:17:02.178Z,6.13
2018-02-12T08:19:29.802Z,7.00
2018-02-12T08:21:57.411Z,6.33
2018-02-12T08:24:25.008Z,5.53
2018-02-12T08:26:52.696Z,5.70
2018-02-12T08:29:21.062Z,6.93
2018-02-12T08:31:48.604Z,6.30
2018-02-12T08:34:16.208Z,6.87
2018-02-12T08:36:43.779Z,7.20
2018-02-12T08:39:11.373Z,5.90
2018-02-12T08:41:38.938Z,6.30
2018-02-12T08:44:06.490Z,6.40
2018-02-12T08:46:34.076Z,6.00
2018-02-12T08:49:01.628Z,6.30
2018-02-12T08:51:29.216Z,6.60
2018-02-12T08:53:56.764Z,4.93
2018-02-12T08:56:24.354Z,5.30
2018-02-12T08:58:51.943Z,5.10
2018-02-12T09:01:19.474Z,5.00
2018-02-12T09:03:47.084Z,6.00
2018-02-12T09:06:14.640Z,5.40
2018-02-12T09:08:43.108Z,4.70
2018-02-12T09:11:10.662Z,4.87
2018-02-12T09:13:38.250Z,4.17
2018-02-12T09:16:05.971Z,4.63
2018-02-12T09:18:33.524Z,3.47
2018-02-12T09:21:01.069Z,6.00
2018-02-12T09:23:30.363Z,2.90
2018-02-12T09:25:58.026Z,3.43
2018-02-12T09:28:25.655Z,3.27
2018-02-12T09:30:54.050Z,3.47
2018-02-12T09:33:21.588Z,3.50
2018-02-12T09:35:49.140Z,3.67
2018-02-12T09:38:16.713Z,3.13
2018-02-12T09:40:45.012Z,3.00
2018-02-12T09:43:12.595Z,2.47
2018-02-12T09:45:40.138Z,2.50
2018-02-12T09:48:07.842Z,2.77
2018-02-12T09:50:35.406Z,2.53
2018-02-12T09:53:02.993Z,2.83
2018-02-12T09:55:30.624Z,2.67
2018-02-12T09:57:58.419Z,2.53
2018-02-12T10:00:25.981Z,3.20
2018-02-12T10:02:53.543Z,2.50
2018-02-12T10:05:21.147Z,2.73
2018-02-12T10:07:48.717Z,2.37
2018-02-12T10:10:16.314Z,2.43
2018-02-12T10:12:43.867Z,2.53
2018-02-12T10:15:11.434Z,2.70
2018-02-12T10:17:39.764Z,2.17
2018-02-12T10:20:08.262Z,3.20
2018-02-12T10:22:37.141Z,2.10
2018-02-12T10:25:06.554Z,2.47
2018-02-12T10:27:34.114Z,2.20
2018-02-12T10:30:01.695Z,2.47
2018-02-12T10:32:29.260Z,2.60
2018-02-12T10:34:56.863Z,2.37
2018-02-12T10:37:24.412Z,1.90
2018-02-12T10:39:52.022Z,2.80
2018-02-12T10:42:19.572Z,3.00
2018-02-12T10:44:47.910Z,3.43
2018-02-12T10:47:16.437Z,2.80
2018-02-12T10:49:43.996Z,3.67
2018-02-12T10:52:11.660Z,2.90
2018-02-12T10:54:40.004Z,2.93
2018-02-12T10:57:07.694Z,3.70
2018-02-12T10:59:37.114Z,3.50
2018-02-12T11:02:04.688Z,2.97
2018-02-12T11:04:32.329Z,3.87
2018-02-12T11:06:59.915Z,3.90
2018-02-12T11:09:27.507Z,2.83
2018-02-12T11:11:55.868Z,4.50
2018-02-12T11:14:23.402Z,2.77
2018-02-12T11:16:51.008Z,3.47
2018-02-12T11:19:18.583Z,4.73
2018-02-12T11:21:46.203Z,5.00
2018-02-12T11:24:13.835Z,3.70
2018-02-12T11:26:41.390Z,4.07
2018-02-12T11:29:09.727Z,3.40
2018-02-12T11:31:38.101Z,3.47
2018-02-12T11:34:05.798Z,3.60
2018-02-12T11:36:34.186Z,4.07
2018-02-12T11:39:01.781Z,4.50
2018-02-12T11:41:29.370Z,4.07
2018-02-12T11:43:56.934Z,3.17
2018-02-12T11:46:24.535Z,4.80
2018-02-12T11:48:52.979Z,4.33
2018-02-12T11:51:20.538Z,4.60
2018-02-12T11:53:48.135Z,2.70
2018-02-12T11:56:15.695Z,2.60
2018-02-12T11:58:43.294Z,2.40
2018-02-12T12:01:10.898Z,2.30
2018-02-12T12:03:39.319Z,2.67
2018-02-12T12:06:06.889Z,3.70
2018-02-12T12:08:34.472Z,3.03
2018-02-12T12:11:02.077Z,2.93
2018-02-12T12:13:30.421Z,2.80
2018-02-12T12:15:58.019Z,3.67
2018-02-12T12:18:25.602Z,2.63
2018-02-12T12:20:53.164Z,3.30
2018-02-12T12:23:20.769Z,3.50
2018-02-12T12:25:48.492Z,3.30
2018-02-12T12:28:16.051Z,2.67
2018-02-12T12:30:43.635Z,3.80
2018-02-12T12:33:12.030Z,3.27
2018-02-12T12:35:39.571Z,2.97
2018-02-12T12:38:07.913Z,2.87
2018-02-12T12:40:35.808Z,2.70
2018-02-12T12:43:03.373Z,2.60
2018-02-12T12:45:30.999Z,2.83
2018-02-12T12:47:58.656Z,2.90
2018-02-12T12:50:26.243Z,6.07
2018-02-12T12:52:53.837Z,2.03
2018-02-12T12:55:21.424Z,3.00
2018-02-12T12:57:49.032Z,5.73
2018-02-12T13:00:16.622Z,2.27
2018-02-12T13:02:44.940Z,3.13
2018-02-12T13:05:12.807Z,2.00
2018-02-12T13:07:41.213Z,2.30
2018-02-12T13:10:08.913Z,2.50
2018-02-12T13:12:36.544Z,3.70
2018-02-12T13:15:04.144Z,2.90
2018-02-12T13:17:31.742Z,3.40
2018-02-12T13:19:59.449Z,2.80
2018-02-12T13:22:27.020Z,3.33
2018-02-12T13:24:55.171Z,2.83
2018-02-12T13:27:22.770Z,3.40
2018-02-12T13:29:50.492Z,3.30
2018-02-12T13:32:18.111Z,3.20
2018-02-12T13:34:45.817Z,3.00
2018-02-12T13:37:13.364Z,3.20
2018-02-12T13:39:40.921Z,3.20
2018-02-12T13:42:08.542Z,3.40
2018-02-12T13:44:36.244Z,3.47
2018-02-12T13:47:04.718Z,3.50
2018-02-12T13:49:32.319Z,2.90
2018-02-12T13:51:59.888Z,3.40
2018-02-12T13:54:27.439Z,3.27
2018-02-12T13:56:55.014Z,3.33
2018-02-12T13:59:22.580Z,3.57
2018-02-12T14:01:50.181Z,3.23
2018-02-12T14:04:17.816Z,4.00
2018-02-12T14:06:45.425Z,3.53
2018-02-12T14:09:13.778Z,3.67
2018-02-12T14:11:42.229Z,4.30
2018-02-12T14:14:09.790Z,3.80
2018-02-12T14:16:38.310Z,3.40
2018-02-12T14:19:07.502Z,2.90
2018-02-12T14:21:35.058Z,3.00
2018-02-12T14:24:02.738Z,2.93
2018-02-12T14:26:30.374Z,3.20
2018-02-12T14:28:57.963Z,3.20
2018-02-12T14:31:25.563Z,3.63
2018-02-12T14:33:53.182Z,3.00
2018-02-12T14:36:20.771Z,2.80
2018-02-12T14:38:49.092Z,3.00
2018-02-12T14:41:17.439Z,3.63
2018-02-12T14:43:45.005Z,3.70
2018-02-12T14:46:12.574Z,3.80
2018-02-12T14:48:40.186Z,3.60
2018-02-12T14:51:07.758Z,2.80
2018-02-12T14:53:35.375Z,4.10
2018-02-12T14:56:02.934Z,2.50
2018-02-12T14:58:30.627Z,3.50
2018-02-12T15:00:58.335Z,2.60
2018-02-12T15:03:25.893Z,3.30
2018-02-12T15:05:54.319Z,6.13
2018-02-12T15:08:21.885Z,3.07
2018-02-12T15:10:49.472Z,3.00
2018-02-12T15:13:17.154Z,3.30
2018-02-12T15:15:45.464Z,3.03
2018-02-12T15:18:13.806Z,5.37
2018-02-12T15:20:41.613Z,4.57
2018-02-12T15:23:09.200Z,2.70
2018-02-12T15:25:37.613Z,3.40
2018-02-12T15:28:06.780Z,3.30
2018-02-12T15:30:35.085Z,3.17
2018-02-12T15:33:02.635Z,3.90
2018-02-12T15:35:31.131Z,2.60
2018-02-12T15:37:58.709Z,3.10
2018-02-12T15:40:26.286Z,3.13
2018-02-12T15:42:53.875Z,3.23
2018-02-12T15:45:21.436Z,3.37
2018-02-12T15:47:49.800Z,3.13
2018-02-12T15:50:17.367Z,3.10
2018-02-12T15:52:44.964Z,2.87
2018-02-12T15:55:12.543Z,3.67
2018-02-12T15:57:40.092Z,3.70
2018-02-12T16:00:07.668Z,3.67
2018-02-12T16:02:35.900Z,3.00
2018-02-12T16:05:03.492Z,3.70
2018-02-12T16:07:31.031Z,3.60
2018-02-12T16:09:58.669Z,4.15
2018-02-12T16:12:27.017Z,4.00
2018-02-12T16:14:54.650Z,3.30
2018-02-12T16:17:22.211Z,3.63
2018-02-12T16:19:49.764Z,3.58
2018-02-12T16:22:17.338Z,4.80
2018-02-12T16:24:44.874Z,4.10
2018-02-12T16:27:13.235Z,4.27
2018-02-12T16:29:40.780Z,4.10
2018-02-12T16:32:08.369Z,4.50
2018-02-12T16:34:36.700Z,3.70
2018-02-12T16:37:04.303Z,4.37
2018-02-12T16:39:31.915Z,4.40
2018-02-12T16:42:00.238Z,4.50
2018-02-12T16:44:27.794Z,5.20
2018-02-12T16:46:55.364Z,4.90
2018-02-12T16:49:22.980Z,4.47
2018-02-12T16:51:50.587Z,4.60
2018-02-12T16:54:18.148Z,3.60
2018-02-12T16:56:45.734Z,3.40
2018-02-12T16:59:13.332Z,3.63
2018-02-12T17:01:40.948Z,4.57
2018-02-12T17:04:08.514Z,4.53
2018-02-12T17:06:37.473Z,4.30
2018-02-12T17:09:05.053Z,6.45
2018-02-12T17:11:34.097Z,4.33
2018-02-12T17:14:03.209Z,4.72
2018-02-12T17:16:30.766Z,5.20
2018-02-12T17:18:59.242Z,5.20
2018-02-12T17:21:26.906Z,5.73
2018-02-12T17:23:54.480Z,5.03
2018-02-12T17:26:22.036Z,4.57
2018-02-12T17:28:50.379Z,4.05
2018-02-12T17:31:18.039Z,4.62
2018-02-12T17:33:45.944Z,4.40
2018-02-12T17:36:14.330Z,4.22
2018-02-12T17:38:41.928Z,4.00
2018-02-12T17:41:09.497Z,4.90
2018-02-12T17:43:37.150Z,5.12
2018-02-12T17:46:04.818Z,4.72
2018-02-12T17:48:32.619Z,5.35
2018-02-12T17:51:00.191Z,4.30
2018-02-12T17:53:28.571Z,4.00
2018-02-12T17:55:56.907Z,4.68
2018-02-12T17:58:24.452Z,4.95
2018-02-12T18:00:52.165Z,4.65
2018-02-12T18:03:19.801Z,7.90
2018-02-12T18:05:47.365Z,7.72
2018-02-12T18:08:14.928Z,4.40
2018-02-12T18:10:42.532Z,6.22
2018-02-12T18:13:11.001Z,4.82
2018-02-12T18:15:38.654Z,5.15
2018-02-12T18:18:07.756Z,4.97
2018-02-12T18:20:35.620Z,5.30
2018-02-12T18:23:03.226Z,4.50
2018-02-12T18:25:30.901Z,5.47
2018-02-12T18:27:59.257Z,5.22
2018-02-12T18:30:27.550Z,4.00
2018-02-12T18:32:55.169Z,3.97
2018-02-12T18:35:22.730Z,5.43
2018-02-12T18:37:51.102Z,5.97
2018-02-12T18:40:18.664Z,4.03
2018-02-12T18:42:46.246Z,3.70
2018-02-12T18:45:13.830Z,4.22
2018-02-12T18:47:42.166Z,4.00
2018-02-12T18:50:11.580Z,4.03
2018-02-12T18:52:39.164Z,4.28
2018-02-12T18:55:07.571Z,3.80
2018-02-12T18:57:36.972Z,3.33
2018-02-12T19:00:04.574Z,4.20
2018-02-12T19:02:32.531Z,4.10
2018-02-12T19:05:00.185Z,4.35
2018-02-12T19:07:28.806Z,5.82
2018-02-12T19:09:56.500Z,5.25
2018-02-12T19:12:24.128Z,4.75
2018-02-12T19:14:52.977Z,4.62
2018-02-12T19:17:20.604Z,4.70
2018-02-12T19:19:48.164Z,4.53
2018-02-12T19:22:16.621Z,4.55
2018-02-12T19:24:44.948Z,6.07
2018-02-12T19:27:12.584Z,5.30
2018-02-12T19:29:40.918Z,4.95
2018-02-12T19:32:08.604Z,4.90
2018-02-12T19:34:36.723Z,4.40
2018-02-12T19:37:04.331Z,4.90
2018-02-12T19:39:32.875Z,5.60
2018-02-12T19:42:02.250Z,4.78
2018-02-12T19:44:30.676Z,4.70
2018-02-12T19:46:58.270Z,4.12
2018-02-12T19:49:25.854Z,4.37
2018-02-12T19:51:53.530Z,4.65
2018-02-12T19:54:21.844Z,4.40
2018-02-12T19:56:50.950Z,4.95
2018-02-12T19:59:20.850Z,5.50
2018-02-12T20:01:50.197Z,4.97
2018-02-12T20:04:18.611Z,5.20
2018-02-12T20:06:46.311Z,5.60
2018-02-12T20:09:14.754Z,5.70
2018-02-12T20:11:42.751Z,5.03
2018-02-12T20:14:11.204Z,5.32
2018-02-12T20:16:39.523Z,5.50
2018-02-12T20:19:07.520Z,5.95
2018-02-12T20:21:36.274Z,6.55
2018-02-12T20:24:04.685Z,5.75
2018-02-12T20:26:32.517Z,6.70
2018-02-12T20:29:00.189Z,5.25
2018-02-12T20:31:28.550Z,5.87
2018-02-12T20:33:56.892Z,5.65
2018-02-12T20:36:25.233Z,6.40
2018-02-12T20:38:53.670Z,6.30
2018-02-12T20:41:21.392Z,7.40
2018-02-12T20:43:49.027Z,7.68
2018-02-12T20:46:16.772Z,8.15
2018-02-12T20:48:44.351Z,8.18
2018-02-12T20:51:12.778Z,9.00
2018-02-12T20:53:40.367Z,7.90
2018-02-12T20:56:07.957Z,9.50
2018-02-12T20:58:37.531Z,6.90
2018-02-12T21:01:07.537Z,7.95
2018-02-12T21:03:36.888Z,7.82
2018-02-12T21:06:04.630Z,6.80
2018-02-12T21:08:32.345Z,7.90
2018-02-12T21:11:00.679Z,7.70
2018-02-12T21:13:29.136Z,8.02
2018-02-12T21:15:57.458Z,6.70
2018-02-12T21:18:25.170Z,7.65
2018-02-12T21:20:53.685Z,8.20
2018-02-12T21:23:21.247Z,7.10
2018-02-12T21:25:48.830Z,8.00
2018-02-12T21:28:16.376Z,6.62
2018-02-12T21:30:44.000Z,5.70
2018-02-12T21:33:11.563Z,6.35
2018-02-12T21:35:39.190Z,5.75
2018-02-12T21:38:07.542Z,5.55
2018-02-12T21:40:35.146Z,5.55
2018-02-12T21:43:03.478Z,5.28
2018-02-12T21:45:31.922Z,6.22
2018-02-12T21:47:59.470Z,6.40
2018-02-12T21:50:27.062Z,5.93
2018-02-12T21:52:55.366Z,6.65
2018-02-12T21:55:22.969Z,6.20
2018-02-12T21:57:51.288Z,5.90
2018-02-12T22:00:18.906Z,5.45
2018-02-12T22:02:46.470Z,5.85
2018-02-12T22:05:14.062Z,5.90
2018-02-12T22:07:41.658Z,6.35
2018-02-12T22:10:09.215Z,6.55
2018-02-12T22:12:36.808Z,5.93
2018-02-12T22:15:04.388Z,6.50
2018-02-12T22:17:32.072Z,6.25
2018-02-12T22:19:59.656Z,6.05
2018-02-12T22:22:27.214Z,6.32
2018-02-12T22:24:56.476Z,6.18
2018-02-12T22:27:24.049Z,6.82
2018-02-12T22:29:52.630Z,6.95
2018-02-12T22:32:20.312Z,8.10
2018-02-12T22:34:47.870Z,9.15
2018-02-12T22:37:15.456Z,8.25
2018-02-12T22:39:43.792Z,8.82
2018-02-12T22:42:12.140Z,7.82
2018-02-12T22:44:40.452Z,8.18
2018-02-12T22:47:08.035Z,8.60
2018-02-12T22:49:36.373Z,8.45
2018-02-12T22:52:04.716Z,8.65
2018-02-12T22:54:32.429Z,8.55
2018-02-12T22:57:00.015Z,9.27
2018-02-12T22:59:27.563Z,8.48
2018-02-12T23:01:55.155Z,8.73
2018-02-12T23:04:22.733Z,9.95
2018-02-12T23:06:50.349Z,9.27
2018-02-12T23:09:17.904Z,8.93
2018-02-12T23:11:45.465Z,8.77
2018-02-12T23:14:13.818Z,9.20
2018-02-12T23:16:48.889Z,9.00
2018-02-12T23:19:16.426Z,8.70
2018-02-12T23:21:44.003Z,8.75
2018-02-12T23:24:11.593Z,9.30
2018-02-12T23:26:40.092Z,9.25
2018-02-12T23:29:07.681Z,8.52
2018-02-12T23:31:35.229Z,7.90
2018-02-12T23:34:02.831Z,8.80
2018-02-12T23:36:30.398Z,8.55
2018-02-12T23:38:57.956Z,9.27
2018-02-12T23:41:25.535Z,9.35
2018-02-12T23:43:53.093Z,9.50
2018-02-12T23:46:20.661Z,8.70
2018-02-12T23:48:48.246Z,7.72
2018-02-12T23:51:16.553Z,8.57
2018-02-12T23:53:44.896Z,8.90
2018-02-12T23:56:12.468Z,8.43
2018-02-12T23:58:40.075Z,8.27
